ADDS METAR Data INFO
IDs: Format: Raw Decoded Include TAF

Data at: 0503 UTC 23 May 2017

KLRD 230456Z AUTO 05010KT 10SM SCT040 26/21 A2988 RMK AO2 SLP120 T02560211 $
KLRD 230356Z 04007KT 10SM SCT049 BKN080 26/22 A2988 RMK AO2 SLP119 T02610217 $
KLRD 230256Z 06007KT 10SM OVC080 27/22 A2985 RMK AO2 SLP109 T02720217 51009 $
KLRD 230156Z 03005KT 10SM OVC080 28/22 A2985 RMK AO2 SLP108 T02780222 $
KLRD 230056Z 05006KT 10SM BKN038 OVC075 29/22 A2983 RMK AO2 SLP102 T02890217 $
KLRD 222356Z 06005KT 10SM BKN070 29/22 A2982 RMK AO2 SLP100 T02940217 10300 20244 58015 $
KLRD 222256Z 00000KT 10SM BKN042 OVC050 29/22 A2984 RMK AO2 SLP107 T02890217 $
KLRD 222156Z VRB04KT 10SM FEW034 OVC046 29/22 A2985 RMK AO2 SLP110 T02940217 $
KLRD 222056Z 00000KT 10SM SCT031 BKN050 OVC075 29/22 A2987 RMK AO2 SLP114 T02940217 58024 $
KLRD 221956Z 11006KT 10SM OVC075 28/22 A2990 RMK AO2 SLP125 T02830217 $
KLRD 221856Z 10005KT 10SM FEW018 OVC043 26/21 A2992 RMK AO2 SLP135 T02560211 $
KLRD 221756Z 03006KT 10SM OVC037 24/21 A2994 RMK AO2 RAB10E41 SLP141 P0000 60000 T02440206 10244 20200 58011 $
KLRD 221726Z 03007KT 10SM -RA FEW019 BKN041 OVC048 23/21 A2995 RMK AO2 RAB10 P0000 $
KLRD 221656Z 05007KT 10SM FEW013 BKN018 OVC040 23/21 A2995 RMK AO2 RAB38E49 SLP146 P0000 T02330206 $
KLRD 212243Z 07012KT 10SM VCTS -RA FEW016 BKN065 OVC080 22/21 A2987 RMK AO2 PK WND 07037/2209 WSHFT 2155 LTG DSNT ALQDS TSE32B33E41B43 P0083 $
KLRD 212233Z 08014G27KT 8SM VCTS -RA FEW007 BKN032 OVC065 22/19 A2989 RMK AO2 PK WND 07037/2209 WSHFT 2155 LTG DSNT ALQDS TSE32B33 P0083 $
KLRD 212227Z 08020G32KT 3SM -TSRA BR FEW005 BKN018 OVC065 21/18 A2989 RMK AO2 PK WND 07037/2209 WSHFT 2155 LTG DSNT ALQDS CIG 014V026 P0083 $
KLRD 212221Z 08025G36KT 1 1/4SM +TSRA BR SCT005 BKN018 OVC038 19/18 A2989 RMK AO2 PK WND 07037/2209 WSHFT 2155 LTG DSNT ALQDS PRESFR P0083 $
KLRD 212214Z 09031G37KT 3/4SM +TSRA BR BKN005 BKN009 OVC018 20/18 A2992 RMK AO2 PK WND 07037/2209 WSHFT 2155 LTG DSNT ALQDS CIG 002V006 P0080 $
KLRD 212209Z 07030G37KT 1 1/4SM +TSRA BR BKN005 BKN011 OVC018 22/21 A2991 RMK AO2 PK WND 07037/2209 WSHFT 2155 LTG DSNT ALQDS CIG 002V009 P0064 $
KLRD 212205Z 06014G47KT 1SM +TSRA BR BKN005 BKN014 OVC020 22/21 A2993 RMK AO2 PK WND 01029/2157 LTG DSNT ALQDS CIG 002V009 P0046 $
KLRD 212156Z 03041G51KT 1/2SM +TSRA FG BKN005 BKN014 OVC070 23/22 A2991 RMK AO2 PK WND 03051/2155 WSHFT 2128 LTG DSNT ALQDS RAB03 CIG 002V009 SLP130 T02280217 $
KLRD 212154Z 1/2SM TS FG SCT005 BKN014 OVC070 23/22 A2989 RMK AO2 WSHFT 2128 LTG DSNT ALQDS RAB03E54 CIG 010V022 $
KLRD 212148Z 32027G37KT 1SM +TSRA BR FEW007 BKN014 OVC075 23/22 A2991 RMK AO2 PK WND 31037/2148 WSHFT 2128 LTG DSNT ALQDS RAB03 CIG 010V022 $
KLRD 212144Z 31019G37KT 1 3/4SM +TSRA BR SCT012 BKN034 OVC075 23/21 A2990 RMK AO2 PK WND 30037/2141 WSHFT 2128 LTG DSNT ALQDS RAB03 PRESRR $
KLRD 212142Z 30027G37KT 2 1/2SM +TSRA FEW012 BKN060 OVC075 25/22 A2989 RMK AO2 PK WND 30037/2141 WSHFT 2128 LTG DSNT ALQDS RAB03 $
KLRD 212056Z 07014KT 10SM TS BKN075 OVC095 27/23 A2984 RMK AO2 LTG DSNT ALQDS TSB38RAB38E53 PRESFR SLP104 P0000 60000 T02720228 56025 $
KLRD 212049Z 07012KT 10SM VCTS -RA BKN075 OVC090 27/23 A2985 RMK AO2 LTG DSNT W-N TSB38RAB38 P0000 $
KLRD 211956Z 06011KT 9SM BKN100 28/24 A2988 RMK AO2 LTG DSNT W AND NW SLP120 T02780239 $
KLRD 211856Z 06009KT 10SM SCT095 29/22 A2991 RMK AO2 SLP130 T02890222 $
KLRD 211756Z 09013KT 10SM CLR 29/23 A2992 RMK AO2 SLP132 T02890228 10294 20239 58017 $


Page loaded:  05:03 UTC  |   10:03 PM Pacific  |   11:03 PM Mountain  |   12:03 AM Central  |   01:03 AM Eastern

 

ADVISORIES

FORECASTS

FORECASTS

OBSERVATIONS

USER TOOLS

ABOUT US